Queen Of Nanaimo — VCNX — position and weather

sailwx.info

Track history (hours):
 
Tides and Currents Weather Stations Pressure Air Temp Water Temp Dewpoint Dewpoint Depression Visibility Wind Speed Wind Dir Waves Ship Positions

Queen Of Nanaimo

Last reported at 2015-Apr-21 05:12 UTC. Time now 2015-Apr-21 11:34 UTC.
Position N 48°51' W 123°26'.

Length 130 m; draft 4 m.

Type: Ship. MMSI: 316001254.

Date/timePositionNaut miles runAvg speedWind from/ knotsBaromVisibWave heightAir tempDewpointWater temp
2015-Apr-21 05:12N 48°51' W 123°26'5 6.9
2015-Apr-21 04:24N 48°48' W 123°19'4 4.8
2015-Apr-21 03:33N 48°52' W 123°19'9 9.2
2015-Apr-21 02:33N 48°59' W 123°10'2 2.0
2015-Apr-21 01:33N 49°00' W 123°08'1110.7
2015-Apr-21 00:33N 48°53' W 123°19'3 2.5
2015-Apr-20 23:25N 48°50' W 123°20'3 1.0
2015-Apr-20 20:07N 48°50' W 123°25'5 6.9
2015-Apr-20 19:25N 48°48' W 123°19'4 4.4
2015-Apr-20 18:34N 48°52' W 123°19'9 9.0
2015-Apr-20 17:33N 48°59' W 123°11'3 2.5
2015-Apr-20 16:33N 49°00' W 123°08'1110.7
2015-Apr-20 15:33N 48°53' W 123°19'2 2.0
2015-Apr-20 14:33N 48°51' W 123°20'3 3.4
2015-Apr-20 13:32N 48°50' W 123°25'2 1.7
2015-Apr-20 12:29N 48°51' W 123°27'0 0.0
2015-Apr-20 11:29N 48°51' W 123°27'7 1.1
2015-Apr-20 05:33N 48°54' W 123°17'9 9.2
2015-Apr-20 04:33N 49°00' W 123°08'1211.7
2015-Apr-20 03:33N 48°51' W 123°20'1 0.8
2015-Apr-20 02:33N 48°52' W 123°19'1111.1
2015-Apr-20 01:33N 49°00' W 123°08'8 7.5
2015-Apr-20 00:33N 48°54' W 123°15'5 4.7
2015-Apr-19 23:30N 48°51' W 123°20'4 4.5
2015-Apr-19 22:32N 48°51' W 123°27'0 0.0
2015-Apr-19 21:20N 48°51' W 123°27'6 7.8
2015-Apr-19 20:33N 48°48' W 123°19'5 4.5
2015-Apr-19 19:34N 48°53' W 123°19'9 9.0
2015-Apr-19 18:33N 48°59' W 123°09'2 1.6
2015-Apr-19 17:33N 49°00' W 123°08'1010.4
2015-Apr-19 16:33N 48°53' W 123°18'2 2.1
2015-Apr-19 15:33N 48°51' W 123°20'3 3.4
2015-Apr-19 14:33N 48°49' W 123°24'3 0.8
2015-Apr-19 11:08N 48°51' W 123°27'0 0.0
2015-Apr-19 10:33N 48°51' W 123°27'0 0.0
2015-Apr-19 08:16N 48°51' W 123°27'4 1.6
2015-Apr-19 05:33N 48°51' W 123°20'5 5.1
2015-Apr-19 04:33N 48°55' W 123°15'8 7.5
2015-Apr-19 03:33N 49°00' W 123°08'0 0.0
2015-Apr-19 02:34N 49°00' W 123°08'1 0.8
2015-Apr-19 01:34N 48°60' W 123°08'10 9.9
2015-Apr-19 00:33N 48°53' W 123°19'5 4.5
2015-Apr-18 23:33N 48°48' W 123°20'4 1.4
2015-Apr-18 20:33N 48°51' W 123°24'1211.5
2015-Apr-18 19:33N 48°59' W 123°11'1 1.3
2015-Apr-18 18:34N 48°57' W 123°12'9 6.4
2015-Apr-18 17:13N 48°51' W 123°20'2 2.9
2015-Apr-18 16:33N 48°53' W 123°19'1110.7
2015-Apr-18 15:33N 49°00' W 123°08'5 5.3
2015-Apr-18 14:33N 48°56' W 123°12'1110.3
2015-Apr-18 13:31N 48°51' W 123°27'0 0.1
2015-Apr-18 12:29N 48°51' W 123°27'0 0.0
2015-Apr-18 10:06N 48°51' W 123°27'0 0.0
2015-Apr-18 09:31N 48°51' W 123°27'0 0.0
2015-Apr-18 08:11N 48°51' W 123°27'1 0.2
2015-Apr-18 05:28N 48°51' W 123°26'5 6.0
2015-Apr-18 04:33N 48°48' W 123°19'5 4.9
2015-Apr-18 03:33N 48°53' W 123°19'10 9.9
2015-Apr-18 02:33N 48°60' W 123°08'1 0.9
2015-Apr-18 01:34N 49°00' W 123°08'1110.7
2015-Apr-18 00:33N 48°53' W 123°19'2 2.3
2015-Apr-17 23:29N 48°50' W 123°20'3 3.1
2015-Apr-17 22:31N 48°50' W 123°25'1 0.4
2015-Apr-17 20:08N 48°50' W 123°25'4 6.3
2015-Apr-17 19:26N 48°48' W 123°20'4 5.0
2015-Apr-17 18:33N 48°52' W 123°18'8 8.2
2015-Apr-17 17:33N 48°59' W 123°11'3 2.6
2015-Apr-17 16:33N 49°00' W 123°08'10 9.7
2015-Apr-17 15:33N 48°53' W 123°18'3 2.7
2015-Apr-17 14:31N 48°51' W 123°20'3 3.7
2015-Apr-17 13:34N 48°50' W 123°25'2 1.5
2015-Apr-17 12:08N 48°51' W 123°27'0 0.0
2015-Apr-17 11:21N 48°51' W 123°27'0 0.0
2015-Apr-17 10:07N 48°51' W 123°27'0 0.0
2015-Apr-17 09:08N 48°51' W 123°27'0 0.0
2015-Apr-17 08:29N 48°51' W 123°27'0 0.0
2015-Apr-17 07:15N 48°51' W 123°27'0 0.0
2015-Apr-17 05:31N 48°51' W 123°27'6 5.9
2015-Apr-17 04:32N 48°48' W 123°20'5 5.0
2015-Apr-17 03:33N 48°53' W 123°18'8 8.4
2015-Apr-17 02:33N 48°59' W 123°10'2 2.1
2015-Apr-17 01:33N 49°00' W 123°08'1110.6
2015-Apr-17 00:33N 48°53' W 123°19'3 2.9
2015-Apr-16 23:26N 48°49' W 123°20'3 3.8
2015-Apr-16 22:32N 48°50' W 123°25'0 0.0
2015-Apr-16 20:03N 48°50' W 123°25'5 8.2
2015-Apr-16 19:28N 48°48' W 123°19'4 4.0
2015-Apr-16 18:34N 48°52' W 123°19'8 8.3
2015-Apr-16 17:33N 48°58' W 123°11'3 3.0
2015-Apr-16 16:34N 49°00' W 123°08'1110.6
2015-Apr-16 15:33N 48°53' W 123°19'2 1.9
2015-Apr-16 14:32N 48°51' W 123°20'3 3.6
2015-Apr-16 13:33N 48°50' W 123°25'2 0.3
2015-Apr-16 06:21N 48°51' W 123°27'0 0.0
2015-Apr-16 05:27N 48°51' W 123°27'6 6.4
2015-Apr-16 04:31N 48°48' W 123°19'4 4.3
2015-Apr-16 03:34N 48°52' W 123°18'9 9.0
2015-Apr-16 02:33N 48°59' W 123°10'2 1.8
2015-Apr-16 01:34N 49°00' W 123°08'1110.7
2015-Apr-16 00:33N 48°53' W 123°19'2 1.9
2015-Apr-15 23:31N 48°51' W 123°20'3 3.5
2015-Apr-15 22:33N 48°50' W 123°25'2 0.9
2015-Apr-15 20:27N 48°51' W 123°27'6 4.9
2015-Apr-15 19:17N 48°48' W 123°20'4 4.9
2015-Apr-15 18:30N 48°52' W 123°20'7 7.7
2015-Apr-15 17:34N 48°57' W 123°13'5 4.6
2015-Apr-15 16:33N 49°00' W 123°08'1110.5
2015-Apr-15 15:34N 48°53' W 123°19'2 2.0
2015-Apr-15 14:33N 48°51' W 123°20'3 3.3
2015-Apr-15 13:33N 48°49' W 123°24'3 0.6
2015-Apr-15 08:30N 48°51' W 123°27'0 0.0
2015-Apr-15 07:29N 48°51' W 123°27'0 0.0
2015-Apr-15 05:25N 48°51' W 123°27'6 6.3
2015-Apr-15 04:28N 48°48' W 123°19'4 5.0
2015-Apr-15 03:33N 48°52' W 123°18'9 8.9
2015-Apr-15 02:33N 48°59' W 123°09'2 1.7
2015-Apr-15 01:33N 49°00' W 123°08'1110.7
2015-Apr-15 00:33N 48°53' W 123°19'2 1.8
2015-Apr-14 23:29N 48°51' W 123°20'3 3.7
2015-Apr-14 22:32N 48°50' W 123°25'0 0.2
2015-Apr-14 20:06N 48°50' W 123°25'5 7.6
2015-Apr-14 19:28N 48°48' W 123°19'4 4.9
2015-Apr-14 18:34N 48°52' W 123°18'1010.4
2015-Apr-14 17:33N 49°00' W 123°08'0 0.2
2015-Apr-14 16:33N 49°00' W 123°08'1110.5
2015-Apr-14 15:33N 48°53' W 123°19'2 2.2
2015-Apr-14 14:32N 48°51' W 123°20'3 3.1
2015-Apr-14 13:33N 48°50' W 123°25'2 2.0
2015-Apr-14 12:32N 48°51' W 123°27'0 0.0
2015-Apr-14 11:22N 48°51' W 123°27'0 0.0
2015-Apr-14 10:24N 48°51' W 123°27'0 0.0
2015-Apr-14 09:30N 48°51' W 123°27'0 0.0
2015-Apr-14 08:30N 48°51' W 123°27'0 0.0
2015-Apr-14 05:33N 48°51' W 123°27'6 6.0
2015-Apr-14 04:33N 48°48' W 123°19'4 4.1
2015-Apr-14 03:33N 48°52' W 123°18'9 9.1
2015-Apr-14 02:33N 48°59' W 123°09'2 1.8
2015-Apr-14 01:33N 49°00' W 123°08'1110.7
2015-Apr-14 00:33N 48°53' W 123°19'2 1.9
2015-Apr-13 23:30N 48°51' W 123°20'3 3.4
2015-Apr-13 22:33N 48°49' W 123°24'2 2.0
2015-Apr-13 21:22N 48°51' W 123°27'6 3.2
2015-Apr-13 19:30N 48°48' W 123°19'4 3.8
2015-Apr-13 18:33N 48°52' W 123°20'8 8.1
2015-Apr-13 17:34N 48°58' W 123°12'4 3.7
2015-Apr-13 16:34N 49°00' W 123°08'1010.3
2015-Apr-13 15:34N 48°53' W 123°18'2 2.2
2015-Apr-13 14:33N 48°51' W 123°20'3 3.3
2015-Apr-13 13:32N 48°49' W 123°24'3 1.8
2015-Apr-13 12:06N 48°51' W 123°27'0 0.0
2015-Apr-13 07:17N 48°51' W 123°27'4 2.5
2015-Apr-13 05:33N 48°52' W 123°20'1212.0
2015-Apr-13 04:33N 49°00' W 123°08'10 9.9
2015-Apr-13 03:34N 48°53' W 123°18'1 1.3
2015-Apr-13 02:34N 48°52' W 123°19'1111.2
2015-Apr-13 01:33N 49°00' W 123°08'6 6.5
2015-Apr-13 00:33N 48°55' W 123°14'6 5.8
2015-Apr-12 23:33N 48°52' W 123°21'4 1.6
2015-Apr-12 21:10N 48°51' W 123°27'6 8.9
2015-Apr-12 20:30N 48°48' W 123°19'4 4.1
2015-Apr-12 19:33N 48°52' W 123°19'9 8.6
2015-Apr-12 18:33N 48°59' W 123°10'2 2.5
2015-Apr-12 17:33N 49°00' W 123°08'10 9.9
2015-Apr-12 16:33N 48°53' W 123°18'3 2.5
2015-Apr-12 15:31N 48°51' W 123°20'3 3.5
2015-Apr-12 14:33N 48°49' W 123°24'3 2.4
2015-Apr-12 13:21N 48°51' W 123°27'0 0.0
2015-Apr-12 12:19N 48°51' W 123°27'0 0.0
2015-Apr-12 11:21N 48°51' W 123°27'0 0.0
2015-Apr-12 08:04N 48°51' W 123°27'0 0.0
2015-Apr-12 07:27N 48°51' W 123°27'0 0.0
2015-Apr-12 06:31N 48°51' W 123°27'4 3.8
2015-Apr-12 05:33N 48°51' W 123°21'3 3.5
2015-Apr-12 04:33N 48°53' W 123°17'9 9.4
2015-Apr-12 03:33N 49°00' W 123°08'0 0.0
2015-Apr-12 02:33N 49°00' W 123°08'0 0.2
2015-Apr-12 01:34N 49°00' W 123°08'1010.5
2015-Apr-12 00:33N 48°53' W 123°19'5 3.6
2015-Apr-11 23:19N 48°48' W 123°19'6 3.2
2015-Apr-11 21:24N 48°51' W 123°27'1 1.1
2015-Apr-11 20:32N 48°51' W 123°26'1212.3
2015-Apr-11 19:33N 48°58' W 123°11'0 0.3
2015-Apr-11 18:34N 48°58' W 123°10'9 9.3
2015-Apr-11 17:33N 48°51' W 123°20'2 1.9
2015-Apr-11 16:33N 48°53' W 123°19'1110.7
2015-Apr-11 15:33N 49°00' W 123°08'5 4.9
2015-Apr-11 14:33N 48°56' W 123°12'11 1.5
2015-Apr-11 07:05N 48°51' W 123°27'0 0.0
2015-Apr-11 06:28N 48°51' W 123°27'  
Track history (hours):
 
Tides and Currents Weather Stations Pressure Air Temp Water Temp Dewpoint Dewpoint Depression Visibility Wind Speed Wind Dir Waves Ship Positions

Queen Of Nanaimo

Last reported at 2015-Apr-21 05:12 UTC. Time now 2015-Apr-21 11:34 UTC.
Position N 48°51' W 123°26'.

Length 130 m; draft 4 m.

Type: Ship. MMSI: 316001254.

Date/timePositionNaut miles runAvg speedWind from/ knotsBaromVisibWave heightAir tempDewpointWater temp
2015-Apr-21 05:12N 48°51' W 123°26'5 6.9
2015-Apr-21 04:24N 48°48' W 123°19'4 4.8
2015-Apr-21 03:33N 48°52' W 123°19'9 9.2
2015-Apr-21 02:33N 48°59' W 123°10'2 2.0
2015-Apr-21 01:33N 49°00' W 123°08'1110.7
2015-Apr-21 00:33N 48°53' W 123°19'3 2.5
2015-Apr-20 23:25N 48°50' W 123°20'3 1.0
2015-Apr-20 20:07N 48°50' W 123°25'5 6.9
2015-Apr-20 19:25N 48°48' W 123°19'4 4.4
2015-Apr-20 18:34N 48°52' W 123°19'9 9.0
2015-Apr-20 17:33N 48°59' W 123°11'3 2.5
2015-Apr-20 16:33N 49°00' W 123°08'1110.7
2015-Apr-20 15:33N 48°53' W 123°19'2 2.0
2015-Apr-20 14:33N 48°51' W 123°20'3 3.4
2015-Apr-20 13:32N 48°50' W 123°25'2 1.7
2015-Apr-20 12:29N 48°51' W 123°27'0 0.0
2015-Apr-20 11:29N 48°51' W 123°27'7 1.1
2015-Apr-20 05:33N 48°54' W 123°17'9 9.2
2015-Apr-20 04:33N 49°00' W 123°08'1211.7
2015-Apr-20 03:33N 48°51' W 123°20'1 0.8
2015-Apr-20 02:33N 48°52' W 123°19'1111.1
2015-Apr-20 01:33N 49°00' W 123°08'8 7.5
2015-Apr-20 00:33N 48°54' W 123°15'5 4.7
2015-Apr-19 23:30N 48°51' W 123°20'4 4.5
2015-Apr-19 22:32N 48°51' W 123°27'0 0.0
2015-Apr-19 21:20N 48°51' W 123°27'6 7.8
2015-Apr-19 20:33N 48°48' W 123°19'5 4.5
2015-Apr-19 19:34N 48°53' W 123°19'9 9.0
2015-Apr-19 18:33N 48°59' W 123°09'2 1.6
2015-Apr-19 17:33N 49°00' W 123°08'1010.4
2015-Apr-19 16:33N 48°53' W 123°18'2 2.1
2015-Apr-19 15:33N 48°51' W 123°20'3 3.4
2015-Apr-19 14:33N 48°49' W 123°24'3 0.8
2015-Apr-19 11:08N 48°51' W 123°27'0 0.0
2015-Apr-19 10:33N 48°51' W 123°27'0 0.0
2015-Apr-19 08:16N 48°51' W 123°27'4 1.6
2015-Apr-19 05:33N 48°51' W 123°20'5 5.1
2015-Apr-19 04:33N 48°55' W 123°15'8 7.5
2015-Apr-19 03:33N 49°00' W 123°08'0 0.0
2015-Apr-19 02:34N 49°00' W 123°08'1 0.8
2015-Apr-19 01:34N 48°60' W 123°08'10 9.9
2015-Apr-19 00:33N 48°53' W 123°19'5 4.5
2015-Apr-18 23:33N 48°48' W 123°20'4 1.4
2015-Apr-18 20:33N 48°51' W 123°24'1211.5
2015-Apr-18 19:33N 48°59' W 123°11'1 1.3
2015-Apr-18 18:34N 48°57' W 123°12'9 6.4
2015-Apr-18 17:13N 48°51' W 123°20'2 2.9
2015-Apr-18 16:33N 48°53' W 123°19'1110.7
2015-Apr-18 15:33N 49°00' W 123°08'5 5.3
2015-Apr-18 14:33N 48°56' W 123°12'1110.3
2015-Apr-18 13:31N 48°51' W 123°27'0 0.1
2015-Apr-18 12:29N 48°51' W 123°27'0 0.0
2015-Apr-18 10:06N 48°51' W 123°27'0 0.0
2015-Apr-18 09:31N 48°51' W 123°27'0 0.0
2015-Apr-18 08:11N 48°51' W 123°27'1 0.2
2015-Apr-18 05:28N 48°51' W 123°26'5 6.0
2015-Apr-18 04:33N 48°48' W 123°19'5 4.9
2015-Apr-18 03:33N 48°53' W 123°19'10 9.9
2015-Apr-18 02:33N 48°60' W 123°08'1 0.9
2015-Apr-18 01:34N 49°00' W 123°08'1110.7
2015-Apr-18 00:33N 48°53' W 123°19'2 2.3
2015-Apr-17 23:29N 48°50' W 123°20'3 3.1
2015-Apr-17 22:31N 48°50' W 123°25'1 0.4
2015-Apr-17 20:08N 48°50' W 123°25'4 6.3
2015-Apr-17 19:26N 48°48' W 123°20'4 5.0
2015-Apr-17 18:33N 48°52' W 123°18'8 8.2
2015-Apr-17 17:33N 48°59' W 123°11'3 2.6
2015-Apr-17 16:33N 49°00' W 123°08'10 9.7
2015-Apr-17 15:33N 48°53' W 123°18'3 2.7
2015-Apr-17 14:31N 48°51' W 123°20'3 3.7
2015-Apr-17 13:34N 48°50' W 123°25'2 1.5
2015-Apr-17 12:08N 48°51' W 123°27'0 0.0
2015-Apr-17 11:21N 48°51' W 123°27'0 0.0
2015-Apr-17 10:07N 48°51' W 123°27'0 0.0
2015-Apr-17 09:08N 48°51' W 123°27'0 0.0
2015-Apr-17 08:29N 48°51' W 123°27'0 0.0
2015-Apr-17 07:15N 48°51' W 123°27'0 0.0
2015-Apr-17 05:31N 48°51' W 123°27'6 5.9
2015-Apr-17 04:32N 48°48' W 123°20'5 5.0
2015-Apr-17 03:33N 48°53' W 123°18'8 8.4
2015-Apr-17 02:33N 48°59' W 123°10'2 2.1
2015-Apr-17 01:33N 49°00' W 123°08'1110.6
2015-Apr-17 00:33N 48°53' W 123°19'3 2.9
2015-Apr-16 23:26N 48°49' W 123°20'3 3.8
2015-Apr-16 22:32N 48°50' W 123°25'0 0.0
2015-Apr-16 20:03N 48°50' W 123°25'5 8.2
2015-Apr-16 19:28N 48°48' W 123°19'4 4.0
2015-Apr-16 18:34N 48°52' W 123°19'8 8.3
2015-Apr-16 17:33N 48°58' W 123°11'3 3.0
2015-Apr-16 16:34N 49°00' W 123°08'1110.6
2015-Apr-16 15:33N 48°53' W 123°19'2 1.9
2015-Apr-16 14:32N 48°51' W 123°20'3 3.6
2015-Apr-16 13:33N 48°50' W 123°25'2 0.3
2015-Apr-16 06:21N 48°51' W 123°27'0 0.0
2015-Apr-16 05:27N 48°51' W 123°27'6 6.4
2015-Apr-16 04:31N 48°48' W 123°19'4 4.3
2015-Apr-16 03:34N 48°52' W 123°18'9 9.0
2015-Apr-16 02:33N 48°59' W 123°10'2 1.8
2015-Apr-16 01:34N 49°00' W 123°08'1110.7
2015-Apr-16 00:33N 48°53' W 123°19'2 1.9
2015-Apr-15 23:31N 48°51' W 123°20'3 3.5
2015-Apr-15 22:33N 48°50' W 123°25'2 0.9
2015-Apr-15 20:27N 48°51' W 123°27'6 4.9
2015-Apr-15 19:17N 48°48' W 123°20'4 4.9
2015-Apr-15 18:30N 48°52' W 123°20'7 7.7
2015-Apr-15 17:34N 48°57' W 123°13'5 4.6
2015-Apr-15 16:33N 49°00' W 123°08'1110.5
2015-Apr-15 15:34N 48°53' W 123°19'2 2.0
2015-Apr-15 14:33N 48°51' W 123°20'3 3.3
2015-Apr-15 13:33N 48°49' W 123°24'3 0.6
2015-Apr-15 08:30N 48°51' W 123°27'0 0.0
2015-Apr-15 07:29N 48°51' W 123°27'0 0.0
2015-Apr-15 05:25N 48°51' W 123°27'6 6.3
2015-Apr-15 04:28N 48°48' W 123°19'4 5.0
2015-Apr-15 03:33N 48°52' W 123°18'9 8.9
2015-Apr-15 02:33N 48°59' W 123°09'2 1.7
2015-Apr-15 01:33N 49°00' W 123°08'1110.7
2015-Apr-15 00:33N 48°53' W 123°19'2 1.8
2015-Apr-14 23:29N 48°51' W 123°20'3 3.7
2015-Apr-14 22:32N 48°50' W 123°25'0 0.2
2015-Apr-14 20:06N 48°50' W 123°25'5 7.6
2015-Apr-14 19:28N 48°48' W 123°19'4 4.9
2015-Apr-14 18:34N 48°52' W 123°18'1010.4
2015-Apr-14 17:33N 49°00' W 123°08'0 0.2
2015-Apr-14 16:33N 49°00' W 123°08'1110.5
2015-Apr-14 15:33N 48°53' W 123°19'2 2.2
2015-Apr-14 14:32N 48°51' W 123°20'3 3.1
2015-Apr-14 13:33N 48°50' W 123°25'2 2.0
2015-Apr-14 12:32N 48°51' W 123°27'0 0.0
2015-Apr-14 11:22N 48°51' W 123°27'0 0.0
2015-Apr-14 10:24N 48°51' W 123°27'0 0.0
2015-Apr-14 09:30N 48°51' W 123°27'0 0.0
2015-Apr-14 08:30N 48°51' W 123°27'0 0.0
2015-Apr-14 05:33N 48°51' W 123°27'6 6.0
2015-Apr-14 04:33N 48°48' W 123°19'4 4.1
2015-Apr-14 03:33N 48°52' W 123°18'9 9.1
2015-Apr-14 02:33N 48°59' W 123°09'2 1.8
2015-Apr-14 01:33N 49°00' W 123°08'1110.7
2015-Apr-14 00:33N 48°53' W 123°19'2 1.9
2015-Apr-13 23:30N 48°51' W 123°20'3 3.4
2015-Apr-13 22:33N 48°49' W 123°24'2 2.0
2015-Apr-13 21:22N 48°51' W 123°27'6 3.2
2015-Apr-13 19:30N 48°48' W 123°19'4 3.8
2015-Apr-13 18:33N 48°52' W 123°20'8 8.1
2015-Apr-13 17:34N 48°58' W 123°12'4 3.7
2015-Apr-13 16:34N 49°00' W 123°08'1010.3
2015-Apr-13 15:34N 48°53' W 123°18'2 2.2
2015-Apr-13 14:33N 48°51' W 123°20'3 3.3
2015-Apr-13 13:32N 48°49' W 123°24'3 1.8
2015-Apr-13 12:06N 48°51' W 123°27'0 0.0
2015-Apr-13 07:17N 48°51' W 123°27'4 2.5
2015-Apr-13 05:33N 48°52' W 123°20'1212.0
2015-Apr-13 04:33N 49°00' W 123°08'10 9.9
2015-Apr-13 03:34N 48°53' W 123°18'1 1.3
2015-Apr-13 02:34N 48°52' W 123°19'1111.2
2015-Apr-13 01:33N 49°00' W 123°08'6 6.5
2015-Apr-13 00:33N 48°55' W 123°14'6 5.8
2015-Apr-12 23:33N 48°52' W 123°21'4 1.6
2015-Apr-12 21:10N 48°51' W 123°27'6 8.9
2015-Apr-12 20:30N 48°48' W 123°19'4 4.1
2015-Apr-12 19:33N 48°52' W 123°19'9 8.6
2015-Apr-12 18:33N 48°59' W 123°10'2 2.5
2015-Apr-12 17:33N 49°00' W 123°08'10 9.9
2015-Apr-12 16:33N 48°53' W 123°18'3 2.5
2015-Apr-12 15:31N 48°51' W 123°20'3 3.5
2015-Apr-12 14:33N 48°49' W 123°24'3 2.4
2015-Apr-12 13:21N 48°51' W 123°27'0 0.0
2015-Apr-12 12:19N 48°51' W 123°27'0 0.0
2015-Apr-12 11:21N 48°51' W 123°27'0 0.0
2015-Apr-12 08:04N 48°51' W 123°27'0 0.0
2015-Apr-12 07:27N 48°51' W 123°27'0 0.0
2015-Apr-12 06:31N 48°51' W 123°27'4 3.8
2015-Apr-12 05:33N 48°51' W 123°21'3 3.5
2015-Apr-12 04:33N 48°53' W 123°17'9 9.4
2015-Apr-12 03:33N 49°00' W 123°08'0 0.0
2015-Apr-12 02:33N 49°00' W 123°08'0 0.2
2015-Apr-12 01:34N 49°00' W 123°08'1010.5
2015-Apr-12 00:33N 48°53' W 123°19'5 3.6
2015-Apr-11 23:19N 48°48' W 123°19'6 3.2
2015-Apr-11 21:24N 48°51' W 123°27'1 1.1
2015-Apr-11 20:32N 48°51' W 123°26'1212.3
2015-Apr-11 19:33N 48°58' W 123°11'0 0.3
2015-Apr-11 18:34N 48°58' W 123°10'9 9.3
2015-Apr-11 17:33N 48°51' W 123°20'2 1.9
2015-Apr-11 16:33N 48°53' W 123°19'1110.7
2015-Apr-11 15:33N 49°00' W 123°08'5 4.9
2015-Apr-11 14:33N 48°56' W 123°12'11 1.5
2015-Apr-11 07:05N 48°51' W 123°27'0 0.0
2015-Apr-11 06:28N 48°51' W 123°27'  

Dump ship's entire track history